sensor_id;sensor_type;location;lat;lon;timestamp;P1;durP1;ratioP1;P2;durP2;ratioP2
67378;SDS011;54262;44.642;-0.974;2022-10-16T00:00:56;2.95;;;1.73;;
67378;SDS011;54262;44.642;-0.974;2022-10-16T00:03:22;1.98;;;1.40;;
67378;SDS011;54262;44.642;-0.974;2022-10-16T00:05:48;3.08;;;1.52;;
67378;SDS011;54262;44.642;-0.974;2022-10-16T00:08:14;2.97;;;1.40;;
67378;SDS011;54262;44.642;-0.974;2022-10-16T00:10:41;1.45;;;1.33;;
67378;SDS011;54262;44.642;-0.974;2022-10-16T00:13:07;2.88;;;1.27;;
67378;SDS011;54262;44.642;-0.974;2022-10-16T00:15:34;1.27;;;1.17;;
67378;SDS011;54262;44.642;-0.974;2022-10-16T00:18:01;1.40;;;1.30;;
67378;SDS011;54262;44.642;-0.974;2022-10-16T00:20:27;2.10;;;1.50;;
67378;SDS011;54262;44.642;-0.974;2022-10-16T00:22:53;2.20;;;1.48;;
67378;SDS011;54262;44.642;-0.974;2022-10-16T00:25:19;1.30;;;1.20;;
67378;SDS011;54262;44.642;-0.974;2022-10-16T00:27:45;1.48;;;1.35;;
67378;SDS011;54262;44.642;-0.974;2022-10-16T00:30:12;1.50;;;1.40;;
67378;SDS011;54262;44.642;-0.974;2022-10-16T00:32:38;1.60;;;1.50;;
67378;SDS011;54262;44.642;-0.974;2022-10-16T00:35:04;1.40;;;1.30;;
67378;SDS011;54262;44.642;-0.974;2022-10-16T00:37:30;1.67;;;1.58;;
67378;SDS011;54262;44.642;-0.974;2022-10-16T00:39:56;1.90;;;1.80;;
67378;SDS011;54262;44.642;-0.974;2022-10-16T00:42:22;3.28;;;1.38;;
67378;SDS011;54262;44.642;-0.974;2022-10-16T00:44:50;1.70;;;1.60;;
67378;SDS011;54262;44.642;-0.974;2022-10-16T00:49:50;2.10;;;1.20;;
67378;SDS011;54262;44.642;-0.974;2022-10-16T00:52:16;1.60;;;1.50;;
67378;SDS011;54262;44.642;-0.974;2022-10-16T00:54:43;1.77;;;1.67;;
67378;SDS011;54262;44.642;-0.974;2022-10-16T00:57:09;1.75;;;1.45;;
67378;SDS011;54262;44.642;-0.974;2022-10-16T00:59:37;2.45;;;1.55;;
67378;SDS011;54262;44.642;-0.974;2022-10-16T01:02:05;1.40;;;1.30;;
67378;SDS011;54262;44.642;-0.974;2022-10-16T01:04:35;1.10;;;1.10;;
67378;SDS011;54262;44.642;-0.974;2022-10-16T01:17:12;1.20;;;1.10;;
67378;SDS011;54262;44.642;-0.974;2022-10-16T01:22:10;1.98;;;1.13;;
67378;SDS011;54262;44.642;-0.974;2022-10-16T01:24:40;1.17;;;1.08;;
67378;SDS011;54262;44.642;-0.974;2022-10-16T01:27:11;1.40;;;1.27;;
67378;SDS011;54262;44.642;-0.974;2022-10-16T01:32:47;1.73;;;1.17;;
67378;SDS011;54262;44.642;-0.974;2022-10-16T01:35:20;1.50;;;1.35;;
67378;SDS011;54262;44.642;-0.974;2022-10-16T01:37:59;1.30;;;1.20;;
67378;SDS011;54262;44.642;-0.974;2022-10-16T01:40:26;1.30;;;1.20;;
67378;SDS011;54262;44.642;-0.974;2022-10-16T01:42:55;1.67;;;0.93;;
67378;SDS011;54262;44.642;-0.974;2022-10-16T01:45:22;1.20;;;1.10;;
67378;SDS011;54262;44.642;-0.974;2022-10-16T01:47:49;0.98;;;0.98;;
67378;SDS011;54262;44.642;-0.974;2022-10-16T01:50:16;0.95;;;0.95;;
67378;SDS011;54262;44.642;-0.974;2022-10-16T01:52:44;1.40;;;1.35;;
67378;SDS011;54262;44.642;-0.974;2022-10-16T01:55:12;1.27;;;0.90;;
67378;SDS011;54262;44.642;-0.974;2022-10-16T01:57:40;1.20;;;1.10;;
67378;SDS011;54262;44.642;-0.974;2022-10-16T02:00:09;1.20;;;1.13;;
67378;SDS011;54262;44.642;-0.974;2022-10-16T02:02:36;1.10;;;1.00;;
67378;SDS011;54262;44.642;-0.974;2022-10-16T02:05:15;1.20;;;1.10;;
67378;SDS011;54262;44.642;-0.974;2022-10-16T02:07:42;1.08;;;1.00;;
67378;SDS011;54262;44.642;-0.974;2022-10-16T02:10:08;1.05;;;1.02;;
67378;SDS011;54262;44.642;-0.974;2022-10-16T02:12:36;1.15;;;1.15;;
67378;SDS011;54262;44.642;-0.974;2022-10-16T02:15:04;1.23;;;1.10;;
67378;SDS011;54262;44.642;-0.974;2022-10-16T02:17:31;0.73;;;0.73;;
67378;SDS011;54262;44.642;-0.974;2022-10-16T02:19:57;0.90;;;0.90;;
67378;SDS011;54262;44.642;-0.974;2022-10-16T02:22:27;1.17;;;1.10;;
67378;SDS011;54262;44.642;-0.974;2022-10-16T02:27:25;1.58;;;1.42;;
67378;SDS011;54262;44.642;-0.974;2022-10-16T02:29:54;1.13;;;1.08;;
67378;SDS011;54262;44.642;-0.974;2022-10-16T02:32:24;1.13;;;1.02;;
67378;SDS011;54262;44.642;-0.974;2022-10-16T02:34:50;1.25;;;1.05;;
67378;SDS011;54262;44.642;-0.974;2022-10-16T02:37:17;1.13;;;0.93;;
67378;SDS011;54262;44.642;-0.974;2022-10-16T02:39:44;2.90;;;1.20;;
67378;SDS011;54262;44.642;-0.974;2022-10-16T02:42:13;0.88;;;0.88;;
67378;SDS011;54262;44.642;-0.974;2022-10-16T02:44:39;1.02;;;0.75;;
67378;SDS011;54262;44.642;-0.974;2022-10-16T02:47:06;1.10;;;1.10;;
67378;SDS011;54262;44.642;-0.974;2022-10-16T02:49:32;3.60;;;1.13;;
67378;SDS011;54262;44.642;-0.974;2022-10-16T02:51:58;1.02;;;1.02;;
67378;SDS011;54262;44.642;-0.974;2022-10-16T02:54:24;1.00;;;1.00;;
67378;SDS011;54262;44.642;-0.974;2022-10-16T02:56:50;0.75;;;0.75;;
67378;SDS011;54262;44.642;-0.974;2022-10-16T02:59:16;1.40;;;1.30;;
67378;SDS011;54262;44.642;-0.974;2022-10-16T03:01:43;1.27;;;1.08;;
67378;SDS011;54262;44.642;-0.974;2022-10-16T03:04:09;1.67;;;1.58;;
67378;SDS011;54262;44.642;-0.974;2022-10-16T03:06:35;1.38;;;0.85;;
67378;SDS011;54262;44.642;-0.974;2022-10-16T03:09:01;0.95;;;0.95;;
67378;SDS011;54262;44.642;-0.974;2022-10-16T03:11:27;1.02;;;1.02;;
67378;SDS011;54262;44.642;-0.974;2022-10-16T03:13:53;1.10;;;1.10;;
67378;SDS011;54262;44.642;-0.974;2022-10-16T03:16:19;1.40;;;1.27;;
67378;SDS011;54262;44.642;-0.974;2022-10-16T03:18:49;1.45;;;1.17;;
67378;SDS011;54262;44.642;-0.974;2022-10-16T03:21:15;1.15;;;1.05;;
67378;SDS011;54262;44.642;-0.974;2022-10-16T03:23:41;1.42;;;1.13;;
67378;SDS011;54262;44.642;-0.974;2022-10-16T03:26:07;0.93;;;0.93;;
67378;SDS011;54262;44.642;-0.974;2022-10-16T03:28:34;0.70;;;0.70;;
67378;SDS011;54262;44.642;-0.974;2022-10-16T03:31:00;1.75;;;1.20;;
67378;SDS011;54262;44.642;-0.974;2022-10-16T03:33:26;1.73;;;1.10;;
67378;SDS011;54262;44.642;-0.974;2022-10-16T03:35:52;1.00;;;1.00;;
67378;SDS011;54262;44.642;-0.974;2022-10-16T03:38:19;1.23;;;1.13;;
67378;SDS011;54262;44.642;-0.974;2022-10-16T03:40:46;0.73;;;0.73;;
67378;SDS011;54262;44.642;-0.974;2022-10-16T03:43:12;1.00;;;1.00;;
67378;SDS011;54262;44.642;-0.974;2022-10-16T03:45:38;1.15;;;1.15;;
67378;SDS011;54262;44.642;-0.974;2022-10-16T03:48:04;1.50;;;1.02;;
67378;SDS011;54262;44.642;-0.974;2022-10-16T03:50:31;1.55;;;1.20;;
67378;SDS011;54262;44.642;-0.974;2022-10-16T03:52:57;1.08;;;1.08;;
67378;SDS011;54262;44.642;-0.974;2022-10-16T03:55:23;1.10;;;1.08;;
67378;SDS011;54262;44.642;-0.974;2022-10-16T03:57:49;1.02;;;1.02;;
67378;SDS011;54262;44.642;-0.974;2022-10-16T04:00:15;1.58;;;0.98;;
67378;SDS011;54262;44.642;-0.974;2022-10-16T04:02:41;1.00;;;1.00;;
67378;SDS011;54262;44.642;-0.974;2022-10-16T04:05:08;1.52;;;1.42;;
67378;SDS011;54262;44.642;-0.974;2022-10-16T04:07:34;0.85;;;0.85;;
67378;SDS011;54262;44.642;-0.974;2022-10-16T04:10:00;1.42;;;1.13;;
67378;SDS011;54262;44.642;-0.974;2022-10-16T04:12:26;0.95;;;0.85;;
67378;SDS011;54262;44.642;-0.974;2022-10-16T04:14:52;2.13;;;1.10;;
67378;SDS011;54262;44.642;-0.974;2022-10-16T04:17:18;2.38;;;1.30;;
67378;SDS011;54262;44.642;-0.974;2022-10-16T04:19:45;1.00;;;1.00;;
67378;SDS011;54262;44.642;-0.974;2022-10-16T04:22:11;1.33;;;1.23;;
67378;SDS011;54262;44.642;-0.974;2022-10-16T04:24:37;1.08;;;1.08;;
67378;SDS011;54262;44.642;-0.974;2022-10-16T04:27:03;1.17;;;1.17;;
67378;SDS011;54262;44.642;-0.974;2022-10-16T04:29:29;1.42;;;1.33;;
67378;SDS011;54262;44.642;-0.974;2022-10-16T04:31:55;2.63;;;1.60;;
67378;SDS011;54262;44.642;-0.974;2022-10-16T04:34:21;2.08;;;1.85;;
67378;SDS011;54262;44.642;-0.974;2022-10-16T04:36:48;1.63;;;1.52;;
67378;SDS011;54262;44.642;-0.974;2022-10-16T04:39:14;4.07;;;1.63;;
67378;SDS011;54262;44.642;-0.974;2022-10-16T04:41:40;2.10;;;1.35;;
67378;SDS011;54262;44.642;-0.974;2022-10-16T04:44:06;1.55;;;1.45;;
67378;SDS011;54262;44.642;-0.974;2022-10-16T04:46:33;1.48;;;1.48;;
67378;SDS011;54262;44.642;-0.974;2022-10-16T04:48:59;1.25;;;1.25;;
67378;SDS011;54262;44.642;-0.974;2022-10-16T04:51:25;1.45;;;1.38;;
67378;SDS011;54262;44.642;-0.974;2022-10-16T04:53:52;6.88;;;1.27;;
67378;SDS011;54262;44.642;-0.974;2022-10-16T04:56:19;1.75;;;1.65;;
67378;SDS011;54262;44.642;-0.974;2022-10-16T04:58:46;1.65;;;1.52;;
67378;SDS011;54262;44.642;-0.974;2022-10-16T05:01:12;1.42;;;1.33;;
67378;SDS011;54262;44.642;-0.974;2022-10-16T05:03:38;1.30;;;1.30;;
67378;SDS011;54262;44.642;-0.974;2022-10-16T05:06:05;1.70;;;1.60;;
67378;SDS011;54262;44.642;-0.974;2022-10-16T05:08:31;1.25;;;1.17;;
67378;SDS011;54262;44.642;-0.974;2022-10-16T05:10:58;1.30;;;1.20;;
67378;SDS011;54262;44.642;-0.974;2022-10-16T05:13:24;1.95;;;1.30;;
67378;SDS011;54262;44.642;-0.974;2022-10-16T05:15:51;2.08;;;1.98;;
67378;SDS011;54262;44.642;-0.974;2022-10-16T05:18:17;3.53;;;1.27;;
67378;SDS011;54262;44.642;-0.974;2022-10-16T05:20:43;1.38;;;1.30;;
67378;SDS011;54262;44.642;-0.974;2022-10-16T05:23:09;1.67;;;1.58;;
67378;SDS011;54262;44.642;-0.974;2022-10-16T05:25:36;3.13;;;1.35;;
67378;SDS011;54262;44.642;-0.974;2022-10-16T05:28:03;2.35;;;1.50;;
67378;SDS011;54262;44.642;-0.974;2022-10-16T05:30:29;1.50;;;1.42;;
67378;SDS011;54262;44.642;-0.974;2022-10-16T05:32:55;1.50;;;1.48;;
67378;SDS011;54262;44.642;-0.974;2022-10-16T05:35:21;1.90;;;1.80;;
67378;SDS011;54262;44.642;-0.974;2022-10-16T05:37:47;1.20;;;1.20;;
67378;SDS011;54262;44.642;-0.974;2022-10-16T05:40:14;2.25;;;1.30;;
67378;SDS011;54262;44.642;-0.974;2022-10-16T05:42:41;1.42;;;1.33;;
67378;SDS011;54262;44.642;-0.974;2022-10-16T05:45:08;1.50;;;1.50;;
67378;SDS011;54262;44.642;-0.974;2022-10-16T05:47:35;1.65;;;1.02;;
67378;SDS011;54262;44.642;-0.974;2022-10-16T05:50:01;1.38;;;1.27;;
67378;SDS011;54262;44.642;-0.974;2022-10-16T05:52:29;1.48;;;1.45;;
67378;SDS011;54262;44.642;-0.974;2022-10-16T05:54:55;1.65;;;1.55;;
67378;SDS011;54262;44.642;-0.974;2022-10-16T05:57:21;1.30;;;1.30;;
67378;SDS011;54262;44.642;-0.974;2022-10-16T05:59:47;2.28;;;1.88;;
67378;SDS011;54262;44.642;-0.974;2022-10-16T06:02:13;1.77;;;1.67;;
67378;SDS011;54262;44.642;-0.974;2022-10-16T06:04:39;2.35;;;1.80;;
67378;SDS011;54262;44.642;-0.974;2022-10-16T06:07:05;1.40;;;1.40;;
67378;SDS011;54262;44.642;-0.974;2022-10-16T06:09:32;2.35;;;1.63;;
67378;SDS011;54262;44.642;-0.974;2022-10-16T06:11:58;1.70;;;1.65;;
67378;SDS011;54262;44.642;-0.974;2022-10-16T06:14:24;1.77;;;1.70;;
67378;SDS011;54262;44.642;-0.974;2022-10-16T06:16:50;1.90;;;1.80;;
67378;SDS011;54262;44.642;-0.974;2022-10-16T06:19:16;1.55;;;1.20;;
67378;SDS011;54262;44.642;-0.974;2022-10-16T06:21:43;1.65;;;1.55;;
67378;SDS011;54262;44.642;-0.974;2022-10-16T06:24:10;1.77;;;1.67;;
67378;SDS011;54262;44.642;-0.974;2022-10-16T06:26:36;2.53;;;1.70;;
67378;SDS011;54262;44.642;-0.974;2022-10-16T06:29:03;1.77;;;1.63;;
67378;SDS011;54262;44.642;-0.974;2022-10-16T06:31:29;2.95;;;1.92;;
67378;SDS011;54262;44.642;-0.974;2022-10-16T06:33:58;1.60;;;1.50;;
67378;SDS011;54262;44.642;-0.974;2022-10-16T06:36:25;2.05;;;1.95;;
67378;SDS011;54262;44.642;-0.974;2022-10-16T06:38:51;2.22;;;1.92;;
67378;SDS011;54262;44.642;-0.974;2022-10-16T06:41:19;2.35;;;1.55;;
67378;SDS011;54262;44.642;-0.974;2022-10-16T06:43:45;1.85;;;1.50;;
67378;SDS011;54262;44.642;-0.974;2022-10-16T06:46:12;2.65;;;2.00;;
67378;SDS011;54262;44.642;-0.974;2022-10-16T06:48:39;3.95;;;1.77;;
67378;SDS011;54262;44.642;-0.974;2022-10-16T06:51:09;3.08;;;2.22;;
67378;SDS011;54262;44.642;-0.974;2022-10-16T06:53:36;1.95;;;1.85;;
67378;SDS011;54262;44.642;-0.974;2022-10-16T06:56:09;1.65;;;1.55;;
67378;SDS011;54262;44.642;-0.974;2022-10-16T06:58:36;1.60;;;1.50;;
67378;SDS011;54262;44.642;-0.974;2022-10-16T07:01:02;1.65;;;1.55;;
67378;SDS011;54262;44.642;-0.974;2022-10-16T07:03:28;1.58;;;1.48;;
67378;SDS011;54262;44.642;-0.974;2022-10-16T07:05:54;1.48;;;1.40;;
67378;SDS011;54262;44.642;-0.974;2022-10-16T07:08:21;2.30;;;1.60;;
67378;SDS011;54262;44.642;-0.974;2022-10-16T07:10:47;2.47;;;2.38;;
67378;SDS011;54262;44.642;-0.974;2022-10-16T07:13:13;3.55;;;1.77;;
67378;SDS011;54262;44.642;-0.974;2022-10-16T07:15:42;2.97;;;1.77;;
67378;SDS011;54262;44.642;-0.974;2022-10-16T07:18:08;1.55;;;1.55;;
67378;SDS011;54262;44.642;-0.974;2022-10-16T07:20:35;2.47;;;2.28;;
67378;SDS011;54262;44.642;-0.974;2022-10-16T07:23:02;1.98;;;1.20;;
67378;SDS011;54262;44.642;-0.974;2022-10-16T07:25:28;1.77;;;1.55;;
67378;SDS011;54262;44.642;-0.974;2022-10-16T07:27:54;2.60;;;1.90;;
67378;SDS011;54262;44.642;-0.974;2022-10-16T07:30:21;2.50;;;2.40;;
67378;SDS011;54262;44.642;-0.974;2022-10-16T07:32:48;2.95;;;2.00;;
67378;SDS011;54262;44.642;-0.974;2022-10-16T07:35:14;2.67;;;2.00;;
67378;SDS011;54262;44.642;-0.974;2022-10-16T07:37:43;3.80;;;2.97;;
67378;SDS011;54262;44.642;-0.974;2022-10-16T07:40:09;2.80;;;1.33;;
67378;SDS011;54262;44.642;-0.974;2022-10-16T07:42:35;1.58;;;1.48;;
67378;SDS011;54262;44.642;-0.974;2022-10-16T07:45:02;3.47;;;1.33;;
67378;SDS011;54262;44.642;-0.974;2022-10-16T07:47:28;2.20;;;2.08;;
67378;SDS011;54262;44.642;-0.974;2022-10-16T07:49:54;1.98;;;1.88;;
67378;SDS011;54262;44.642;-0.974;2022-10-16T07:52:20;1.95;;;1.85;;
67378;SDS011;54262;44.642;-0.974;2022-10-16T07:54:46;3.03;;;2.08;;
67378;SDS011;54262;44.642;-0.974;2022-10-16T07:57:12;1.70;;;1.60;;
67378;SDS011;54262;44.642;-0.974;2022-10-16T07:59:44;2.88;;;2.67;;
67378;SDS011;54262;44.642;-0.974;2022-10-16T08:02:10;2.20;;;2.10;;
67378;SDS011;54262;44.642;-0.974;2022-10-16T08:04:37;2.45;;;2.35;;
67378;SDS011;54262;44.642;-0.974;2022-10-16T08:07:03;2.70;;;2.50;;
67378;SDS011;54262;44.642;-0.974;2022-10-16T08:09:29;2.53;;;2.35;;
67378;SDS011;54262;44.642;-0.974;2022-10-16T08:11:55;2.35;;;2.20;;
67378;SDS011;54262;44.642;-0.974;2022-10-16T08:14:21;3.10;;;1.98;;
67378;SDS011;54262;44.642;-0.974;2022-10-16T08:16:47;2.67;;;2.58;;
67378;SDS011;54262;44.642;-0.974;2022-10-16T08:19:13;1.55;;;1.48;;
67378;SDS011;54262;44.642;-0.974;2022-10-16T08:21:41;5.00;;;4.07;;
67378;SDS011;54262;44.642;-0.974;2022-10-16T08:24:07;4.22;;;3.40;;
67378;SDS011;54262;44.642;-0.974;2022-10-16T08:26:34;2.55;;;2.42;;
67378;SDS011;54262;44.642;-0.974;2022-10-16T08:29:00;2.28;;;2.03;;
67378;SDS011;54262;44.642;-0.974;2022-10-16T08:31:26;2.10;;;1.90;;
67378;SDS011;54262;44.642;-0.974;2022-10-16T08:33:52;2.45;;;2.35;;
67378;SDS011;54262;44.642;-0.974;2022-10-16T08:36:18;3.67;;;3.38;;
67378;SDS011;54262;44.642;-0.974;2022-10-16T08:38:47;4.45;;;3.17;;
67378;SDS011;54262;44.642;-0.974;2022-10-16T08:46:25;2.30;;;2.20;;
67378;SDS011;54262;44.642;-0.974;2022-10-16T08:48:56;4.22;;;3.40;;
67378;SDS011;54262;44.642;-0.974;2022-10-16T08:51:24;3.03;;;2.85;;
67378;SDS011;54262;44.642;-0.974;2022-10-16T08:56:19;3.25;;;2.97;;
67378;SDS011;54262;44.642;-0.974;2022-10-16T08:58:46;2.55;;;2.45;;
67378;SDS011;54262;44.642;-0.974;2022-10-16T09:01:13;3.65;;;3.45;;
67378;SDS011;54262;44.642;-0.974;2022-10-16T09:11:41;2.67;;;2.58;;
67378;SDS011;54262;44.642;-0.974;2022-10-16T09:17:00;2.22;;;2.13;;
67378;SDS011;54262;44.642;-0.974;2022-10-16T09:21:55;4.38;;;3.47;;
67378;SDS011;54262;44.642;-0.974;2022-10-16T09:24:23;3.35;;;3.05;;
67378;SDS011;54262;44.642;-0.974;2022-10-16T09:26:49;3.92;;;3.63;;
67378;SDS011;54262;44.642;-0.974;2022-10-16T09:29:16;3.83;;;3.53;;
67378;SDS011;54262;44.642;-0.974;2022-10-16T09:31:45;2.45;;;2.35;;
67378;SDS011;54262;44.642;-0.974;2022-10-16T09:34:17;6.03;;;3.45;;
67378;SDS011;54262;44.642;-0.974;2022-10-16T09:36:46;2.15;;;2.05;;
67378;SDS011;54262;44.642;-0.974;2022-10-16T09:39:12;2.88;;;2.78;;
67378;SDS011;54262;44.642;-0.974;2022-10-16T09:41:39;3.10;;;2.90;;
67378;SDS011;54262;44.642;-0.974;2022-10-16T09:44:18;2.33;;;2.22;;
67378;SDS011;54262;44.642;-0.974;2022-10-16T09:46:44;3.03;;;2.83;;
67378;SDS011;54262;44.642;-0.974;2022-10-16T09:49:24;4.38;;;3.20;;
67378;SDS011;54262;44.642;-0.974;2022-10-16T09:51:50;3.03;;;2.83;;
67378;SDS011;54262;44.642;-0.974;2022-10-16T09:54:19;4.03;;;3.15;;
67378;SDS011;54262;44.642;-0.974;2022-10-16T09:56:45;2.78;;;2.67;;
67378;SDS011;54262;44.642;-0.974;2022-10-16T09:59:19;8.43;;;2.92;;
67378;SDS011;54262;44.642;-0.974;2022-10-16T10:01:47;2.47;;;2.38;;
67378;SDS011;54262;44.642;-0.974;2022-10-16T10:04:13;3.17;;;2.83;;
67378;SDS011;54262;44.642;-0.974;2022-10-16T10:06:43;3.45;;;3.28;;
67378;SDS011;54262;44.642;-0.974;2022-10-16T10:09:20;3.63;;;3.42;;
67378;SDS011;54262;44.642;-0.974;2022-10-16T10:11:51;3.22;;;2.92;;
67378;SDS011;54262;44.642;-0.974;2022-10-16T10:14:18;3.13;;;2.97;;
67378;SDS011;54262;44.642;-0.974;2022-10-16T10:16:45;4.70;;;3.00;;
67378;SDS011;54262;44.642;-0.974;2022-10-16T10:19:13;3.67;;;3.08;;
67378;SDS011;54262;44.642;-0.974;2022-10-16T10:21:40;2.53;;;2.42;;
67378;SDS011;54262;44.642;-0.974;2022-10-16T10:24:10;2.67;;;2.50;;
67378;SDS011;54262;44.642;-0.974;2022-10-16T10:26:36;2.05;;;1.95;;
67378;SDS011;54262;44.642;-0.974;2022-10-16T10:29:08;2.63;;;2.53;;
67378;SDS011;54262;44.642;-0.974;2022-10-16T10:36:39;9.88;;;3.05;;
67378;SDS011;54262;44.642;-0.974;2022-10-16T10:41:39;3.45;;;3.22;;
67378;SDS011;54262;44.642;-0.974;2022-10-16T10:47:21;2.88;;;2.67;;
67378;SDS011;54262;44.642;-0.974;2022-10-16T10:55:16;2.65;;;2.42;;
67378;SDS011;54262;44.642;-0.974;2022-10-16T10:57:53;5.03;;;2.88;;
67378;SDS011;54262;44.642;-0.974;2022-10-16T11:11:25;2.80;;;2.70;;
67378;SDS011;54262;44.642;-0.974;2022-10-16T11:16:19;2.70;;;2.50;;
67378;SDS011;54262;44.642;-0.974;2022-10-16T11:18:52;3.97;;;2.13;;
67378;SDS011;54262;44.642;-0.974;2022-10-16T11:21:21;2.90;;;2.80;;
67378;SDS011;54262;44.642;-0.974;2022-10-16T11:23:57;2.70;;;2.50;;
67378;SDS011;54262;44.642;-0.974;2022-10-16T11:26:25;3.10;;;3.00;;
67378;SDS011;54262;44.642;-0.974;2022-10-16T11:28:55;2.45;;;2.35;;
67378;SDS011;54262;44.642;-0.974;2022-10-16T11:31:38;2.63;;;2.53;;
67378;SDS011;54262;44.642;-0.974;2022-10-16T11:36:41;2.83;;;2.70;;
67378;SDS011;54262;44.642;-0.974;2022-10-16T11:41:48;3.17;;;2.67;;
67378;SDS011;54262;44.642;-0.974;2022-10-16T11:46:42;2.95;;;2.70;;
67378;SDS011;54262;44.642;-0.974;2022-10-16T11:49:20;6.47;;;4.43;;
67378;SDS011;54262;44.642;-0.974;2022-10-16T11:54:28;4.43;;;4.03;;
67378;SDS011;54262;44.642;-0.974;2022-10-16T11:56:58;4.18;;;3.85;;
67378;SDS011;54262;44.642;-0.974;2022-10-16T11:59:48;9.88;;;4.22;;
67378;SDS011;54262;44.642;-0.974;2022-10-16T12:04:42;8.18;;;4.93;;
67378;SDS011;54262;44.642;-0.974;2022-10-16T12:07:11;6.75;;;5.22;;
67378;SDS011;54262;44.642;-0.974;2022-10-16T12:09:39;8.27;;;4.03;;
67378;SDS011;54262;44.642;-0.974;2022-10-16T12:12:25;10.20;;;4.10;;
67378;SDS011;54262;44.642;-0.974;2022-10-16T12:15:02;10.88;;;5.18;;
67378;SDS011;54262;44.642;-0.974;2022-10-16T12:17:36;6.78;;;4.30;;
67378;SDS011;54262;44.642;-0.974;2022-10-16T12:22:41;5.93;;;4.63;;
67378;SDS011;54262;44.642;-0.974;2022-10-16T12:25:24;5.22;;;3.80;;
67378;SDS011;54262;44.642;-0.974;2022-10-16T12:27:57;5.28;;;4.75;;
67378;SDS011;54262;44.642;-0.974;2022-10-16T12:30:24;8.15;;;4.40;;
67378;SDS011;54262;44.642;-0.974;2022-10-16T12:32:54;4.63;;;3.80;;
67378;SDS011;54262;44.642;-0.974;2022-10-16T12:35:21;5.45;;;4.07;;
67378;SDS011;54262;44.642;-0.974;2022-10-16T12:37:48;7.82;;;3.40;;
67378;SDS011;54262;44.642;-0.974;2022-10-16T12:40:16;4.22;;;3.88;;
67378;SDS011;54262;44.642;-0.974;2022-10-16T12:42:49;5.63;;;3.63;;
67378;SDS011;54262;44.642;-0.974;2022-10-16T12:45:31;3.80;;;3.15;;
67378;SDS011;54262;44.642;-0.974;2022-10-16T12:47:59;3.25;;;3.05;;
67378;SDS011;54262;44.642;-0.974;2022-10-16T12:50:30;3.90;;;3.45;;
67378;SDS011;54262;44.642;-0.974;2022-10-16T12:52:56;4.00;;;2.63;;
67378;SDS011;54262;44.642;-0.974;2022-10-16T12:55:23;6.97;;;3.28;;
67378;SDS011;54262;44.642;-0.974;2022-10-16T12:58:08;4.85;;;2.80;;
67378;SDS011;54262;44.642;-0.974;2022-10-16T13:01:10;2.83;;;2.60;;
67378;SDS011;54262;44.642;-0.974;2022-10-16T13:24:42;2.47;;;2.28;;
67378;SDS011;54262;44.642;-0.974;2022-10-16T13:27:15;2.90;;;2.70;;
67378;SDS011;54262;44.642;-0.974;2022-10-16T13:29:44;7.65;;;2.47;;
67378;SDS011;54262;44.642;-0.974;2022-10-16T13:32:11;3.42;;;3.13;;
67378;SDS011;54262;44.642;-0.974;2022-10-16T13:34:44;5.97;;;2.70;;
67378;SDS011;54262;44.642;-0.974;2022-10-16T13:37:20;2.58;;;2.40;;
67378;SDS011;54262;44.642;-0.974;2022-10-16T13:39:47;3.28;;;2.97;;
67378;SDS011;54262;44.642;-0.974;2022-10-16T13:42:14;3.47;;;2.70;;
67378;SDS011;54262;44.642;-0.974;2022-10-16T13:44:44;4.63;;;2.47;;
67378;SDS011;54262;44.642;-0.974;2022-10-16T13:47:16;2.75;;;2.50;;
67378;SDS011;54262;44.642;-0.974;2022-10-16T13:49:42;3.22;;;2.40;;
67378;SDS011;54262;44.642;-0.974;2022-10-16T13:52:16;2.72;;;2.53;;
67378;SDS011;54262;44.642;-0.974;2022-10-16T13:54:43;8.25;;;2.47;;
67378;SDS011;54262;44.642;-0.974;2022-10-16T13:57:12;2.45;;;2.25;;
67378;SDS011;54262;44.642;-0.974;2022-10-16T13:59:38;2.25;;;2.03;;
67378;SDS011;54262;44.642;-0.974;2022-10-16T14:02:49;2.13;;;2.03;;
67378;SDS011;54262;44.642;-0.974;2022-10-16T14:04:54;4.00;;;2.65;;
67378;SDS011;54262;44.642;-0.974;2022-10-16T14:07:25;4.43;;;1.98;;
67378;SDS011;54262;44.642;-0.974;2022-10-16T14:09:53;2.55;;;2.40;;
67378;SDS011;54262;44.642;-0.974;2022-10-16T14:12:20;5.25;;;3.65;;
67378;SDS011;54262;44.642;-0.974;2022-10-16T14:14:47;5.35;;;2.35;;
67378;SDS011;54262;44.642;-0.974;2022-10-16T14:17:18;6.05;;;3.40;;
67378;SDS011;54262;44.642;-0.974;2022-10-16T14:19:46;6.70;;;2.83;;
67378;SDS011;54262;44.642;-0.974;2022-10-16T14:22:21;6.25;;;2.92;;
67378;SDS011;54262;44.642;-0.974;2022-10-16T14:24:48;5.68;;;3.75;;
67378;SDS011;54262;44.642;-0.974;2022-10-16T14:27:28;10.88;;;4.10;;
67378;SDS011;54262;44.642;-0.974;2022-10-16T14:32:52;9.23;;;3.85;;
67378;SDS011;54262;44.642;-0.974;2022-10-16T14:35:25;8.75;;;3.88;;
67378;SDS011;54262;44.642;-0.974;2022-10-16T14:37:55;6.03;;;4.68;;
67378;SDS011;54262;44.642;-0.974;2022-10-16T14:40:23;5.78;;;4.43;;
67378;SDS011;54262;44.642;-0.974;2022-10-16T14:42:50;7.90;;;5.05;;
67378;SDS011;54262;44.642;-0.974;2022-10-16T14:45:27;8.45;;;5.03;;
67378;SDS011;54262;44.642;-0.974;2022-10-16T14:47:55;9.32;;;3.88;;
67378;SDS011;54262;44.642;-0.974;2022-10-16T14:50:22;4.93;;;4.43;;
67378;SDS011;54262;44.642;-0.974;2022-10-16T14:52:48;5.05;;;3.95;;
67378;SDS011;54262;44.642;-0.974;2022-10-16T14:55:14;9.68;;;4.38;;
67378;SDS011;54262;44.642;-0.974;2022-10-16T14:57:40;4.07;;;3.78;;
67378;SDS011;54262;44.642;-0.974;2022-10-16T15:00:19;3.80;;;3.50;;
67378;SDS011;54262;44.642;-0.974;2022-10-16T15:02:46;5.78;;;4.05;;
67378;SDS011;54262;44.642;-0.974;2022-10-16T15:07:39;7.15;;;3.30;;
67378;SDS011;54262;44.642;-0.974;2022-10-16T15:10:05;3.58;;;3.28;;
67378;SDS011;54262;44.642;-0.974;2022-10-16T15:12:31;4.20;;;3.22;;
67378;SDS011;54262;44.642;-0.974;2022-10-16T15:14:57;3.83;;;2.92;;
67378;SDS011;54262;44.642;-0.974;2022-10-16T15:17:24;4.10;;;3.80;;
67378;SDS011;54262;44.642;-0.974;2022-10-16T15:19:50;3.88;;;2.75;;
67378;SDS011;54262;44.642;-0.974;2022-10-16T15:22:16;2.78;;;2.58;;
67378;SDS011;54262;44.642;-0.974;2022-10-16T15:24:42;2.95;;;2.83;;
67378;SDS011;54262;44.642;-0.974;2022-10-16T15:27:08;5.57;;;2.58;;
67378;SDS011;54262;44.642;-0.974;2022-10-16T15:29:35;2.88;;;2.67;;
67378;SDS011;54262;44.642;-0.974;2022-10-16T15:32:01;2.55;;;2.35;;
67378;SDS011;54262;44.642;-0.974;2022-10-16T15:34:27;3.63;;;2.85;;
67378;SDS011;54262;44.642;-0.974;2022-10-16T15:36:53;4.95;;;2.92;;
67378;SDS011;54262;44.642;-0.974;2022-10-16T15:39:21;3.83;;;2.97;;
67378;SDS011;54262;44.642;-0.974;2022-10-16T15:41:47;10.98;;;2.42;;
67378;SDS011;54262;44.642;-0.974;2022-10-16T15:44:16;3.75;;;3.03;;
67378;SDS011;54262;44.642;-0.974;2022-10-16T15:46:42;3.95;;;2.40;;
67378;SDS011;54262;44.642;-0.974;2022-10-16T15:49:08;2.90;;;2.70;;
67378;SDS011;54262;44.642;-0.974;2022-10-16T15:51:37;2.80;;;2.70;;
67378;SDS011;54262;44.642;-0.974;2022-10-16T15:54:04;3.00;;;2.80;;
67378;SDS011;54262;44.642;-0.974;2022-10-16T15:56:30;2.35;;;2.17;;
67378;SDS011;54262;44.642;-0.974;2022-10-16T15:58:58;2.58;;;2.47;;
67378;SDS011;54262;44.642;-0.974;2022-10-16T16:01:24;2.45;;;2.35;;
67378;SDS011;54262;44.642;-0.974;2022-10-16T16:03:54;2.63;;;2.45;;
67378;SDS011;54262;44.642;-0.974;2022-10-16T16:06:20;2.13;;;2.03;;
67378;SDS011;54262;44.642;-0.974;2022-10-16T16:08:48;2.70;;;2.50;;
67378;SDS011;54262;44.642;-0.974;2022-10-16T16:11:15;3.50;;;2.50;;
67378;SDS011;54262;44.642;-0.974;2022-10-16T16:13:41;4.50;;;2.35;;
67378;SDS011;54262;44.642;-0.974;2022-10-16T16:16:08;6.45;;;2.67;;
67378;SDS011;54262;44.642;-0.974;2022-10-16T16:18:35;2.70;;;2.50;;
67378;SDS011;54262;44.642;-0.974;2022-10-16T16:21:01;2.90;;;2.70;;
67378;SDS011;54262;44.642;-0.974;2022-10-16T16:23:27;2.45;;;2.35;;
67378;SDS011;54262;44.642;-0.974;2022-10-16T16:26:04;2.92;;;2.72;;
67378;SDS011;54262;44.642;-0.974;2022-10-16T16:28:30;2.53;;;2.42;;
67378;SDS011;54262;44.642;-0.974;2022-10-16T16:30:56;2.20;;;2.10;;